createdAt,value
2018-03-08T00:01:27.729Z,89.10
2018-03-08T00:03:55.352Z,89.30
2018-03-08T00:06:37.566Z,88.50
2018-03-08T00:09:05.964Z,87.90
2018-03-08T00:11:33.580Z,87.90
2018-03-08T00:14:01.208Z,88.60
2018-03-08T00:16:28.828Z,88.00
2018-03-08T00:18:56.456Z,86.80
2018-03-08T00:21:24.080Z,86.40
2018-03-08T00:23:52.472Z,87.20
2018-03-08T00:26:20.089Z,87.10
2018-03-08T00:28:47.711Z,86.80
2018-03-08T00:31:15.341Z,86.90
2018-03-08T00:33:42.968Z,87.00
2018-03-08T00:36:10.592Z,88.40
2018-03-08T00:38:38.981Z,88.10
2018-03-08T00:41:07.376Z,87.30
2018-03-08T00:43:35.324Z,87.30
2018-03-08T00:46:02.950Z,87.90
2018-03-08T00:48:30.572Z,87.60
2018-03-08T00:50:58.211Z,86.80
2018-03-08T00:53:25.853Z,87.10
2018-03-08T00:55:54.245Z,87.70
2018-03-08T00:58:22.244Z,87.60
2018-03-08T01:00:49.874Z,87.80
2018-03-08T01:03:17.505Z,87.50
2018-03-08T01:05:45.464Z,87.20
2018-03-08T01:08:13.089Z,87.60
2018-03-08T01:10:40.717Z,87.80
2018-03-08T01:13:08.672Z,88.10
2018-03-08T01:15:41.638Z,88.50
2018-03-08T01:18:09.248Z,88.40
2018-03-08T01:20:36.872Z,88.60
2018-03-08T01:23:04.496Z,88.70
2018-03-08T01:25:32.127Z,88.90
2018-03-08T01:27:59.756Z,89.70
2018-03-08T01:30:27.384Z,89.50
2018-03-08T01:32:55.018Z,89.00
2018-03-08T01:35:23.401Z,90.10
2018-03-08T01:37:51.033Z,90.10
2018-03-08T01:40:19.128Z,90.00
2018-03-08T01:42:46.762Z,90.20
2018-03-08T01:45:14.394Z,90.30
2018-03-08T01:47:42.008Z,90.30
2018-03-08T01:50:13.162Z,90.30
2018-03-08T01:52:40.785Z,90.40
2018-03-08T01:55:08.414Z,90.10
2018-03-08T01:57:36.301Z,90.20
2018-03-08T02:00:03.924Z,90.00
2018-03-08T02:02:31.549Z,90.00
2018-03-08T02:04:59.181Z,90.00
2018-03-08T02:07:27.575Z,89.70
2018-03-08T02:09:55.203Z,89.70
2018-03-08T02:12:22.824Z,89.80
2018-03-08T02:14:50.453Z,89.00
2018-03-08T02:17:18.376Z,89.00
2018-03-08T02:19:46.005Z,88.60
2018-03-08T02:22:14.393Z,89.40
2018-03-08T02:24:46.232Z,89.30
2018-03-08T02:27:13.853Z,89.30
2018-03-08T02:29:41.468Z,89.40
2018-03-08T02:32:09.096Z,88.80
2018-03-08T02:34:36.716Z,88.60
2018-03-08T02:37:05.107Z,88.60
2018-03-08T02:39:33.164Z,88.50
2018-03-08T02:42:00.788Z,88.00
2018-03-08T02:44:28.416Z,88.30
2018-03-08T02:46:56.051Z,87.80
2018-03-08T02:49:23.684Z,88.00
2018-03-08T02:51:51.319Z,88.10
2018-03-08T02:54:19.262Z,88.60
2018-03-08T02:56:46.880Z,88.40
2018-03-08T02:59:14.515Z,88.30
2018-03-08T03:01:42.906Z,87.70
2018-03-08T03:04:10.537Z,87.70
2018-03-08T03:06:38.160Z,88.10
2018-03-08T03:09:05.799Z,87.50
2018-03-08T03:11:33.437Z,87.70
2018-03-08T03:14:01.069Z,87.00
2018-03-08T03:16:28.690Z,86.30
2018-03-08T03:18:57.085Z,86.70
2018-03-08T03:21:24.709Z,86.70
2018-03-08T03:23:52.333Z,85.90
2018-03-08T03:26:19.956Z,86.30
2018-03-08T03:28:47.588Z,86.20
2018-03-08T03:31:15.612Z,87.40
2018-03-08T03:33:44.005Z,86.00
2018-03-08T03:36:11.628Z,85.90
2018-03-08T03:38:39.621Z,86.90
2018-03-08T03:41:07.240Z,87.40
2018-03-08T03:43:34.877Z,86.10
2018-03-08T03:46:02.504Z,86.20
2018-03-08T03:48:30.125Z,87.10
2018-03-08T03:50:57.772Z,87.10
2018-03-08T03:53:26.161Z,86.60
2018-03-08T03:55:53.785Z,86.60
2018-03-08T03:58:21.396Z,86.20
2018-03-08T04:00:49.065Z,86.70
2018-03-08T04:03:16.657Z,85.90
2018-03-08T04:05:45.041Z,84.90
2018-03-08T04:08:12.683Z,84.80
2018-03-08T04:10:40.305Z,85.10
2018-03-08T04:13:07.941Z,84.80
2018-03-08T04:15:36.327Z,84.20
2018-03-08T04:18:03.962Z,84.20
2018-03-08T04:20:31.576Z,84.20
2018-03-08T04:22:59.198Z,84.80
2018-03-08T04:25:26.826Z,85.10
2018-03-08T04:27:54.451Z,84.70
2018-03-08T04:30:22.365Z,84.60
2018-03-08T04:32:50.003Z,85.00
2018-03-08T04:35:17.613Z,84.20
2018-03-08T04:37:46.013Z,83.90
2018-03-08T04:40:13.646Z,83.80
2018-03-08T04:42:41.304Z,84.30
2018-03-08T04:45:08.917Z,83.70
2018-03-08T04:47:38.489Z,84.00
2018-03-08T04:50:06.104Z,83.80
2018-03-08T04:52:33.745Z,84.20
2018-03-08T04:55:01.360Z,83.90
2018-03-08T04:57:28.985Z,84.00
2018-03-08T04:59:56.605Z,84.10
2018-03-08T05:02:25.140Z,83.50
2018-03-08T05:04:53.076Z,83.60
2018-03-08T05:07:20.685Z,83.50
2018-03-08T05:09:48.316Z,83.00
2018-03-08T05:12:17.213Z,83.90
2018-03-08T05:14:45.604Z,83.60
2018-03-08T05:17:13.989Z,83.20
2018-03-08T05:19:42.385Z,84.20
2018-03-08T05:22:09.996Z,84.20
2018-03-08T05:24:44.192Z,83.60
2018-03-08T05:27:11.809Z,83.90
2018-03-08T05:29:40.519Z,83.40
2018-03-08T05:32:08.956Z,83.80
2018-03-08T05:34:36.568Z,83.80
2018-03-08T05:37:04.193Z,83.80
2018-03-08T05:39:31.830Z,84.40
2018-03-08T05:42:11.473Z,83.80
2018-03-08T05:44:39.089Z,83.60
2018-03-08T05:47:07.480Z,83.40
2018-03-08T05:49:35.868Z,83.70
2018-03-08T05:52:09.417Z,83.60
2018-03-08T05:54:37.065Z,83.40
2018-03-08T05:57:05.418Z,83.80
2018-03-08T05:59:33.812Z,83.40
2018-03-08T06:02:01.462Z,83.40
2018-03-08T06:04:29.076Z,84.10
2018-03-08T06:06:56.707Z,84.30
2018-03-08T06:09:24.343Z,83.80
2018-03-08T06:11:51.961Z,84.10
2018-03-08T06:14:19.587Z,83.60
2018-03-08T06:16:50.001Z,83.60
2018-03-08T06:19:17.611Z,83.50
2018-03-08T06:21:45.240Z,83.50
2018-03-08T06:24:12.849Z,84.10
2018-03-08T06:26:40.477Z,83.90
2018-03-08T06:29:08.863Z,84.10
2018-03-08T06:31:37.351Z,83.40
2018-03-08T06:34:05.740Z,83.40
2018-03-08T06:36:34.120Z,84.50
2018-03-08T06:39:01.762Z,84.50
2018-03-08T06:41:29.378Z,83.50
2018-03-08T06:43:56.988Z,83.50
2018-03-08T06:46:24.608Z,84.10
2018-03-08T06:48:52.233Z,83.20
2018-03-08T06:51:19.864Z,83.50
2018-03-08T06:53:47.496Z,83.00
2018-03-08T06:56:15.114Z,83.00
2018-03-08T06:58:42.729Z,82.60
2018-03-08T07:01:10.351Z,82.00
2018-03-08T07:03:37.965Z,82.80
2018-03-08T07:06:05.588Z,82.50
2018-03-08T07:08:33.213Z,81.20
2018-03-08T07:11:00.836Z,81.50
2018-03-08T07:13:29.229Z,80.80
2018-03-08T07:15:56.892Z,80.80
2018-03-08T07:18:25.276Z,81.20
2018-03-08T07:20:53.669Z,81.50
2018-03-08T07:23:21.300Z,81.50
2018-03-08T07:25:48.919Z,81.20
2018-03-08T07:28:17.541Z,81.70
2018-03-08T07:30:45.923Z,80.80
2018-03-08T07:33:13.548Z,80.50
2018-03-08T07:35:41.171Z,79.40
2018-03-08T07:38:08.828Z,79.20
2018-03-08T07:40:36.453Z,79.70
2018-03-08T07:43:04.079Z,79.10
2018-03-08T07:45:31.696Z,78.60
2018-03-08T07:47:59.326Z,77.80
2018-03-08T07:50:27.716Z,79.00
2018-03-08T07:52:55.349Z,79.00
2018-03-08T07:55:23.030Z,77.90
2018-03-08T07:57:51.431Z,77.90
2018-03-08T08:00:19.135Z,77.90
2018-03-08T08:02:46.752Z,76.90
2018-03-08T08:05:26.680Z,77.40
2018-03-08T08:10:56.217Z,76.70
2018-03-08T08:13:23.838Z,76.30
2018-03-08T08:15:51.500Z,77.20
2018-03-08T08:18:19.070Z,76.10
2018-03-08T08:20:46.726Z,75.70
2018-03-08T08:23:14.757Z,75.00
2018-03-08T08:25:43.142Z,75.60
2018-03-08T08:28:10.754Z,75.50
2018-03-08T08:30:38.377Z,75.00
2018-03-08T08:33:06.005Z,75.20
2018-03-08T08:35:33.657Z,75.30
2018-03-08T08:38:01.335Z,74.60
2018-03-08T08:40:28.966Z,74.70
2018-03-08T08:42:56.568Z,73.10
2018-03-08T08:45:24.189Z,74.20
2018-03-08T08:47:51.813Z,72.00
2018-03-08T08:50:19.437Z,70.60
2018-03-08T08:52:47.061Z,71.30
2018-03-08T08:55:15.452Z,70.80
2018-03-08T08:57:43.089Z,70.80
2018-03-08T09:00:11.525Z,72.70
2018-03-08T09:02:39.086Z,72.80
2018-03-08T09:05:06.704Z,70.60
2018-03-08T09:07:34.348Z,72.40
2018-03-08T09:10:01.945Z,70.80
2018-03-08T09:12:30.328Z,70.50
2018-03-08T09:14:58.712Z,70.10
2018-03-08T09:17:27.101Z,70.20
2018-03-08T09:19:54.722Z,70.10
2018-03-08T09:22:22.336Z,68.50
2018-03-08T09:24:50.720Z,68.60
2018-03-08T09:27:19.105Z,69.00
2018-03-08T09:29:47.500Z,65.80
2018-03-08T09:32:15.117Z,65.90
2018-03-08T09:34:42.740Z,64.10
2018-03-08T09:37:10.353Z,64.30
2018-03-08T09:39:37.969Z,65.00
2018-03-08T09:42:05.588Z,62.80
2018-03-08T09:44:33.213Z,62.70
2018-03-08T09:47:00.822Z,65.30
2018-03-08T09:49:28.444Z,61.40
2018-03-08T09:51:56.093Z,61.00
2018-03-08T09:54:23.717Z,58.90
2018-03-08T09:56:51.353Z,60.10
2018-03-08T09:59:18.961Z,60.70
2018-03-08T10:01:46.585Z,61.50
2018-03-08T10:04:14.568Z,61.90
2018-03-08T10:06:42.201Z,61.90
2018-03-08T10:09:09.838Z,64.30
2018-03-08T10:11:37.440Z,64.50
2018-03-08T10:14:05.064Z,63.50
2018-03-08T10:16:33.444Z,65.80
2018-03-08T10:19:01.827Z,62.30
2018-03-08T10:21:44.453Z,62.20
2018-03-08T10:23:57.057Z,63.50
2018-03-08T10:26:24.672Z,64.50
2018-03-08T10:28:52.302Z,62.70
2018-03-08T10:31:19.934Z,62.40
2018-03-08T10:33:47.549Z,61.80
2018-03-08T10:36:15.924Z,61.60
2018-03-08T10:38:44.309Z,62.30
2018-03-08T10:41:12.733Z,63.50
2018-03-08T10:43:41.075Z,60.20
2018-03-08T10:46:08.690Z,60.10
2018-03-08T10:48:36.312Z,59.10
2018-03-08T10:51:03.936Z,60.60
2018-03-08T10:53:31.562Z,59.20
2018-03-08T10:55:59.189Z,59.20
2018-03-08T10:58:27.156Z,60.00
2018-03-08T11:00:54.785Z,60.50
2018-03-08T11:03:22.401Z,60.60
2018-03-08T11:05:51.072Z,61.80
2018-03-08T11:08:18.701Z,61.70
2018-03-08T11:10:46.313Z,61.40
2018-03-08T11:13:13.928Z,63.10
2018-03-08T11:15:41.632Z,62.50
2018-03-08T11:18:09.292Z,62.70
2018-03-08T11:20:37.186Z,63.10
2018-03-08T11:23:04.793Z,64.20
2018-03-08T11:25:32.404Z,63.60
2018-03-08T11:28:00.018Z,63.30
2018-03-08T11:30:27.669Z,62.00
2018-03-08T11:32:55.248Z,62.00
2018-03-08T11:35:22.888Z,60.60
2018-03-08T11:37:51.266Z,59.90
2018-03-08T11:40:19.662Z,60.60
2018-03-08T11:42:48.057Z,59.30
2018-03-08T11:45:15.680Z,58.80
2018-03-08T11:47:43.305Z,60.40
2018-03-08T11:50:10.940Z,60.00
2018-03-08T11:52:39.316Z,60.30
2018-03-08T11:55:07.706Z,61.50
2018-03-08T11:57:36.093Z,61.10
2018-03-08T12:00:04.476Z,61.80
2018-03-08T12:02:32.093Z,61.80
2018-03-08T12:04:59.708Z,61.10
2018-03-08T12:07:27.320Z,61.40
2018-03-08T12:09:55.238Z,60.50
2018-03-08T12:12:23.646Z,60.90
2018-03-08T12:14:51.260Z,60.90
2018-03-08T12:17:18.876Z,59.90
2018-03-08T12:19:46.493Z,59.70
2018-03-08T12:22:14.114Z,60.80
2018-03-08T12:24:41.728Z,60.70
2018-03-08T12:27:09.376Z,59.70
2018-03-08T12:29:36.964Z,61.00
2018-03-08T12:32:05.340Z,60.00
2018-03-08T12:34:32.958Z,60.10
2018-03-08T12:37:00.574Z,60.40
2018-03-08T12:39:28.188Z,61.20
2018-03-08T12:41:55.818Z,59.40
2018-03-08T12:44:23.448Z,58.90
2018-03-08T12:46:51.068Z,59.40
2018-03-08T12:49:19.460Z,58.70
2018-03-08T12:51:47.118Z,58.60
2018-03-08T12:54:15.487Z,61.00
2018-03-08T12:56:43.868Z,61.30
2018-03-08T12:59:11.856Z,61.00
2018-03-08T13:01:40.236Z,62.60
2018-03-08T13:04:08.666Z,63.30
2018-03-08T13:06:41.782Z,64.00
2018-03-08T13:09:09.390Z,67.10
2018-03-08T13:11:37.011Z,71.00
2018-03-08T13:14:04.624Z,70.10
2018-03-08T13:16:32.250Z,70.30
2018-03-08T13:18:59.885Z,71.40
2018-03-08T13:21:27.506Z,73.80
2018-03-08T13:23:55.880Z,74.40
2018-03-08T13:26:24.272Z,77.50
2018-03-08T13:28:51.891Z,77.40
2018-03-08T13:31:19.510Z,75.50
2018-03-08T13:33:47.888Z,75.80
2018-03-08T13:36:15.502Z,76.10
2018-03-08T13:38:43.124Z,78.30
2018-03-08T13:41:10.740Z,75.90
2018-03-08T13:43:38.376Z,78.40
2018-03-08T13:46:05.980Z,78.60
2018-03-08T13:48:33.682Z,76.80
2018-03-08T13:51:02.056Z,78.00
2018-03-08T13:53:30.442Z,80.20
2018-03-08T13:55:58.829Z,80.90
2018-03-08T13:58:27.214Z,80.50
2018-03-08T14:01:03.225Z,81.30
2018-03-08T14:03:30.849Z,81.30
2018-03-08T14:05:59.223Z,82.10
2018-03-08T14:08:31.188Z,82.40
2018-03-08T14:10:59.557Z,83.70
2018-03-08T14:13:27.961Z,82.60
2018-03-08T14:15:56.719Z,82.90
2018-03-08T14:18:25.112Z,80.40
2018-03-08T14:20:52.725Z,80.40
2018-03-08T14:23:20.336Z,83.20
2018-03-08T14:25:47.967Z,82.30
2018-03-08T14:28:15.590Z,83.40
2018-03-08T14:30:43.974Z,83.10
2018-03-08T14:33:12.364Z,83.40
2018-03-08T14:35:40.741Z,85.20
2018-03-08T14:38:09.165Z,85.20
2018-03-08T14:40:36.782Z,85.20
2018-03-08T14:43:04.797Z,84.10
2018-03-08T14:45:32.413Z,85.30
2018-03-08T14:48:00.036Z,85.40
2018-03-08T14:50:27.664Z,87.50
2018-03-08T14:52:56.047Z,88.20
2018-03-08T14:55:23.723Z,88.10
2018-03-08T14:57:51.336Z,89.10
2018-03-08T15:00:19.087Z,88.70
2018-03-08T15:02:46.693Z,89.20
2018-03-08T15:05:14.317Z,88.60
2018-03-08T15:07:41.928Z,87.90
2018-03-08T15:10:10.313Z,90.00
2018-03-08T15:12:37.935Z,89.70
2018-03-08T15:15:05.576Z,89.50
2018-03-08T15:17:33.196Z,89.40
2018-03-08T15:20:00.809Z,90.10
2018-03-08T15:22:28.677Z,88.50
2018-03-08T15:24:56.313Z,89.00
2018-03-08T15:27:23.947Z,88.50
2018-03-08T15:29:51.565Z,90.30
2018-03-08T15:32:21.954Z,89.60
2018-03-08T15:34:49.592Z,89.60
2018-03-08T15:37:17.221Z,89.80
2018-03-08T15:39:45.603Z,89.50
2018-03-08T15:42:13.253Z,89.30
2018-03-08T15:44:52.760Z,89.20
2018-03-08T15:47:20.372Z,89.90
2018-03-08T15:49:48.013Z,90.00
2018-03-08T15:52:15.620Z,89.10
2018-03-08T15:54:43.253Z,90.00
2018-03-08T15:57:10.868Z,90.00
2018-03-08T15:59:38.488Z,89.70
2018-03-08T16:02:06.880Z,89.00
2018-03-08T16:04:35.258Z,88.50
2018-03-08T16:10:23.916Z,88.50
2018-03-08T16:12:52.299Z,88.10
2018-03-08T16:15:20.688Z,87.50
2018-03-08T16:17:49.095Z,87.60
2018-03-08T16:20:16.688Z,87.50
2018-03-08T16:22:44.307Z,86.30
2018-03-08T16:25:25.865Z,85.10
2018-03-08T16:27:54.245Z,83.40
2018-03-08T16:30:21.859Z,82.60
2018-03-08T16:32:49.475Z,82.50
2018-03-08T16:35:17.125Z,83.90
2018-03-08T16:37:44.756Z,83.30
2018-03-08T16:40:23.292Z,83.90
2018-03-08T16:42:50.928Z,84.30
2018-03-08T16:45:18.541Z,83.30
2018-03-08T16:47:46.153Z,83.20
2018-03-08T16:50:13.792Z,82.90
2018-03-08T16:52:42.183Z,82.20
2018-03-08T16:55:10.576Z,82.20
2018-03-08T16:57:38.188Z,82.20
2018-03-08T17:00:05.822Z,82.00
2018-03-08T17:02:33.428Z,81.30
2018-03-08T17:05:01.044Z,80.10
2018-03-08T17:07:28.669Z,81.40
2018-03-08T17:09:56.277Z,82.00
2018-03-08T17:12:23.901Z,81.30
2018-03-08T17:14:51.514Z,80.30
2018-03-08T17:17:19.128Z,81.60
2018-03-08T17:19:47.715Z,80.00
2018-03-08T17:22:15.328Z,80.00
2018-03-08T17:24:42.944Z,80.80
2018-03-08T17:27:10.573Z,80.00
2018-03-08T17:29:38.182Z,79.90
2018-03-08T17:32:05.897Z,80.90
2018-03-08T17:34:33.512Z,79.60
2018-03-08T17:37:01.130Z,79.90
2018-03-08T17:39:28.747Z,79.20
2018-03-08T17:41:56.357Z,80.70
2018-03-08T17:44:23.978Z,81.20
2018-03-08T17:46:51.641Z,81.70
2018-03-08T17:49:19.253Z,81.30
2018-03-08T17:51:46.870Z,80.40
2018-03-08T17:54:14.496Z,80.50
2018-03-08T17:56:42.116Z,80.60
2018-03-08T17:59:12.733Z,82.00
2018-03-08T18:01:40.729Z,81.00
2018-03-08T18:04:08.341Z,81.80
2018-03-08T18:06:42.680Z,81.60
2018-03-08T18:09:10.301Z,81.20
2018-03-08T18:11:37.921Z,81.10
2018-03-08T18:14:05.553Z,81.00
2018-03-08T18:16:33.174Z,81.40
2018-03-08T18:19:00.811Z,80.50
2018-03-08T18:21:28.419Z,81.60
2018-03-08T18:23:56.797Z,81.30
2018-03-08T18:26:25.196Z,81.50
2018-03-08T18:28:53.573Z,80.80
2018-03-08T18:31:21.193Z,80.70
2018-03-08T18:33:48.834Z,81.10
2018-03-08T18:36:16.460Z,80.10
2018-03-08T18:41:18.564Z,81.50
2018-03-08T18:43:46.188Z,81.40
2018-03-08T18:46:18.904Z,81.30
2018-03-08T18:48:47.282Z,81.40
2018-03-08T18:51:15.676Z,80.90
2018-03-08T18:53:44.057Z,82.20
2018-03-08T18:56:12.436Z,82.10
2018-03-08T18:58:40.878Z,85.00
2018-03-08T19:01:09.201Z,85.20
2018-03-08T19:03:37.576Z,85.20
2018-03-08T19:06:06.261Z,85.70
2018-03-08T19:08:33.873Z,85.50
2018-03-08T19:11:01.489Z,86.60
2018-03-08T19:13:29.164Z,86.50
2018-03-08T19:15:56.721Z,88.40
2018-03-08T19:18:24.336Z,88.00
2018-03-08T19:20:53.914Z,89.10
2018-03-08T19:23:21.548Z,88.60
2018-03-08T19:34:10.956Z,86.50
2018-03-08T19:36:40.378Z,85.10
2018-03-08T19:39:08.816Z,83.30
2018-03-08T19:41:36.471Z,82.50
2018-03-08T19:44:05.692Z,84.40
2018-03-08T19:46:34.314Z,83.70
2018-03-08T19:49:02.302Z,83.00
2018-03-08T19:51:29.909Z,82.20
2018-03-08T19:53:57.533Z,82.80
2018-03-08T19:56:25.944Z,83.10
2018-03-08T19:58:53.921Z,83.10
2018-03-08T20:01:21.623Z,84.50
2018-03-08T20:03:49.237Z,84.30
2018-03-08T20:06:20.549Z,84.60
2018-03-08T20:08:48.173Z,84.50
2018-03-08T20:11:15.790Z,84.60
2018-03-08T20:13:43.425Z,85.50
2018-03-08T20:16:11.047Z,85.10
2018-03-08T20:18:38.673Z,84.20
2018-03-08T20:21:06.389Z,85.20
2018-03-08T20:23:34.007Z,85.70
2018-03-08T20:26:01.741Z,85.30
2018-03-08T20:28:29.354Z,85.60
2018-03-08T20:30:56.965Z,85.00
2018-03-08T20:33:30.281Z,85.00
2018-03-08T20:35:57.910Z,85.30
2018-03-08T20:38:26.281Z,84.80
2018-03-08T20:40:54.688Z,85.90
2018-03-08T20:43:22.319Z,85.80
2018-03-08T20:45:49.933Z,85.80
2018-03-08T20:48:17.565Z,86.20
2018-03-08T20:50:46.002Z,86.30
2018-03-08T20:53:13.624Z,86.30
2018-03-08T20:55:42.006Z,86.60
2018-03-08T20:58:09.897Z,86.60
2018-03-08T21:00:37.519Z,86.00
2018-03-08T21:03:05.150Z,86.50
2018-03-08T21:05:32.771Z,85.90
2018-03-08T21:08:07.267Z,85.50
2018-03-08T21:10:34.902Z,85.60
2018-03-08T21:13:02.530Z,85.80
2018-03-08T21:15:30.916Z,85.60
2018-03-08T21:17:59.301Z,85.90
2018-03-08T21:20:26.999Z,85.90
2018-03-08T21:22:54.607Z,85.20
2018-03-08T21:25:22.257Z,85.50
2018-03-08T21:27:49.908Z,85.30
2018-03-08T21:30:17.537Z,85.50
2018-03-08T21:32:45.152Z,85.30
2018-03-08T21:35:12.781Z,85.50
2018-03-08T21:37:40.421Z,85.00
2018-03-08T21:40:08.810Z,84.50
2018-03-08T21:42:37.220Z,85.30
2018-03-08T21:45:04.837Z,85.30
2018-03-08T21:47:32.455Z,84.60
2018-03-08T21:50:00.081Z,85.40
2018-03-08T21:52:28.465Z,84.80
2018-03-08T21:54:56.848Z,84.30
2018-03-08T21:57:25.228Z,84.10
2018-03-08T21:59:53.612Z,84.20
2018-03-08T22:02:21.993Z,84.60
2018-03-08T22:04:50.277Z,84.70
2018-03-08T22:07:19.668Z,83.70
2018-03-08T22:09:47.286Z,83.70
2018-03-08T22:12:14.960Z,82.80
2018-03-08T22:14:42.565Z,82.90
2018-03-08T22:17:10.211Z,83.30
2018-03-08T22:19:37.841Z,82.50
2018-03-08T22:22:05.460Z,82.30
2018-03-08T22:24:33.097Z,82.10
2018-03-08T22:27:00.704Z,81.60
2018-03-08T22:29:28.312Z,82.40
2018-03-08T22:31:55.945Z,81.30
2018-03-08T22:34:24.338Z,81.10
2018-03-08T22:36:52.719Z,81.30
2018-03-08T22:39:20.337Z,81.20
2018-03-08T22:41:47.998Z,80.40
2018-03-08T22:44:15.924Z,81.60
2018-03-08T22:46:43.549Z,79.60
2018-03-08T22:49:11.157Z,81.30
2018-03-08T22:51:38.796Z,80.20
2018-03-08T22:54:06.411Z,80.80
2018-03-08T22:56:34.019Z,81.00
2018-03-08T22:59:01.640Z,80.80
2018-03-08T23:04:52.192Z,80.40
2018-03-08T23:07:19.813Z,80.70
2018-03-08T23:09:47.429Z,80.00
2018-03-08T23:12:16.108Z,79.60
2018-03-08T23:14:43.750Z,79.50
2018-03-08T23:17:11.366Z,80.00
2018-03-08T23:19:38.981Z,81.00
2018-03-08T23:22:06.602Z,80.30
2018-03-08T23:24:34.221Z,80.90
2018-03-08T23:27:01.841Z,80.20
2018-03-08T23:29:29.479Z,80.10
2018-03-08T23:31:57.865Z,79.60
2018-03-08T23:34:26.250Z,79.60
2018-03-08T23:36:54.650Z,80.20
2018-03-08T23:39:23.043Z,79.30
2018-03-08T23:41:50.641Z,79.20
2018-03-08T23:44:18.264Z,79.90
2018-03-08T23:46:46.637Z,80.00
2018-03-08T23:49:14.266Z,79.90
2018-03-08T23:51:42.265Z,79.60
2018-03-08T23:54:10.649Z,79.90
2018-03-08T23:56:38.280Z,79.90
2018-03-08T23:59:05.919Z,79.80
